Time;durP1;ratioP1;P1;durP2;ratioP2;P2;SDS_P1;SDS_P2;PMS_P1;PMS_P2;Temp;Humidity;BMP_temperature;BMP_pressure;BME280_temperature;BME280_humidity;BME280_pressure;Samples;Min_cycle;Max_cycle;Signal;HPM_P1;HPM_P2
2020/12/04 00:00:15;;;;;;;117.23;47.00;;;;;;;1.90;79.02;100925.38;5032107;28;20030;-68
2020/12/04 00:02:40;;;;;;;107.90;45.60;;;;;;;1.94;78.95;100935.00;5032719;28;20553;-65
2020/12/04 00:05:06;;;;;;;120.57;47.20;;;;;;;1.93;78.61;100941.78;5032500;28;20104;-72
2020/12/04 00:07:32;;;;;;;111.20;46.27;;;;;;;1.94;78.80;100942.66;5032724;28;20420;-69
2020/12/04 00:09:59;;;;;;;100.97;44.93;;;;;;;1.75;79.15;100946.28;5032457;28;20037;-68
2020/12/04 00:12:25;;;;;;;109.03;45.57;;;;;;;1.81;79.78;100942.44;5032107;28;20100;-70
2020/12/04 00:14:50;;;;;;;100.50;44.63;;;;;;;1.68;80.18;100938.91;5032092;28;20120;-65
2020/12/04 00:17:16;;;;;;;101.37;44.30;;;;;;;1.74;79.87;100946.16;5032068;28;20030;-73
2020/12/04 00:19:42;;;;;;;101.73;44.33;;;;;;;1.76;79.99;100950.59;5032089;28;20029;-65
2020/12/04 00:22:07;;;;;;;97.13;41.27;;;;;;;1.60;80.17;100945.94;5032391;28;20025;-66
2020/12/04 00:24:33;;;;;;;101.17;43.43;;;;;;;1.63;80.51;100937.66;5032016;28;20538;-69
2020/12/04 00:26:58;;;;;;;102.47;43.37;;;;;;;1.68;80.20;100935.50;5032023;28;20018;-69
2020/12/04 00:29:26;;;;;;;91.83;41.73;;;;;;;1.77;79.52;100937.13;5031354;28;20116;-68
2020/12/04 00:31:55;;;;;;;102.07;43.70;;;;;;;1.82;78.88;100934.94;5032001;28;20455;-65
2020/12/04 00:34:21;;;;;;;91.82;40.95;;;;;;;1.83;79.06;100923.09;5046565;28;20037;-67
2020/12/04 00:36:48;;;;;;;97.30;41.87;;;;;;;1.68;79.61;100926.19;5030602;28;20041;-67
2020/12/04 00:39:14;;;;;;;93.87;41.47;;;;;;;1.76;79.62;100932.78;5032249;28;20075;-69
2020/12/04 00:41:40;;;;;;;92.73;40.93;;;;;;;1.68;79.82;100936.38;5032297;28;20488;-67
2020/12/04 00:44:05;;;;;;;93.50;42.33;;;;;;;1.61;80.11;100935.00;5032308;28;20039;-65
2020/12/04 00:46:31;;;;;;;100.23;44.50;;;;;;;1.62;79.89;100933.38;5032106;28;20029;-66
2020/12/04 00:48:56;;;;;;;92.90;41.50;;;;;;;1.76;79.20;100931.91;5031976;28;20026;-69
2020/12/04 00:51:22;;;;;;;95.80;40.13;;;;;;;1.85;79.04;100939.38;5031896;28;20029;-68
2020/12/04 00:53:47;;;;;;;89.27;41.27;;;;;;;1.91;78.81;100945.84;5031890;28;20038;-68
2020/12/04 00:56:13;;;;;;;92.57;39.67;;;;;;;1.95;78.59;100952.06;5031870;28;20033;-66
2020/12/04 00:58:38;;;;;;;90.97;39.20;;;;;;;1.82;79.06;100947.69;5031654;28;20400;-66
2020/12/04 01:01:04;;;;;;;91.60;39.23;;;;;;;1.40;81.23;100935.81;5032040;28;20404;-67
2020/12/04 01:03:29;;;;;;;89.17;38.53;;;;;;;1.25;81.72;100938.88;5032078;28;20407;-72
2020/12/04 01:05:55;;;;;;;99.93;41.83;;;;;;;1.28;81.79;100925.53;5046094;28;20045;-69
2020/12/04 01:08:21;;;;;;;98.50;40.80;;;;;;;1.26;81.37;100894.88;5031831;28;20416;-70
2020/12/04 01:10:47;;;;;;;87.97;41.00;;;;;;;1.57;80.95;100932.97;5031518;28;20087;-68
2020/12/04 01:13:13;;;;;;;89.50;38.83;;;;;;;1.80;80.18;100945.78;5031781;28;20373;-67
2020/12/04 01:15:39;;;;;;;98.03;41.63;;;;;;;1.80;79.52;100933.06;5031723;28;20033;-71
2020/12/04 01:18:04;;;;;;;100.00;39.63;;;;;;;1.71;80.08;100931.53;5031718;28;20041;-67
2020/12/04 01:20:30;;;;;;;94.90;41.93;;;;;;;1.50;80.95;100930.72;5031882;28;20100;-69
2020/12/04 01:22:55;;;;;;;104.10;41.80;;;;;;;1.56;81.02;100943.03;5032074;28;20037;-69
2020/12/04 01:25:21;;;;;;;98.13;39.90;;;;;;;1.60;80.65;100929.78;5031407;28;20029;-69
2020/12/04 01:27:46;;;;;;;102.03;40.47;;;;;;;1.51;80.55;100923.94;5031553;28;20035;-71
2020/12/04 01:30:12;;;;;;;102.13;40.30;;;;;;;1.45;81.40;100919.28;5031642;28;20492;-70
2020/12/04 01:32:37;;;;;;;101.90;41.87;;;;;;;1.28;81.88;100926.44;5031695;28;20033;-67
2020/12/04 01:35:03;;;;;;;100.20;41.40;;;;;;;1.39;82.28;100931.50;5031345;28;20481;-69
2020/12/04 01:37:29;;;;;;;109.77;41.60;;;;;;;1.57;81.42;100929.53;5031584;28;20033;-71
2020/12/04 01:39:54;;;;;;;99.70;40.87;;;;;;;1.47;81.43;100916.84;5063136;28;20076;-70
2020/12/04 01:42:21;;;;;;;104.30;40.83;;;;;;;1.56;81.34;100913.38;5031361;28;20030;-68
2020/12/04 01:44:46;;;;;;;109.63;44.10;;;;;;;1.67;80.84;100904.06;5031342;28;20026;-71
2020/12/04 01:47:12;;;;;;;111.50;44.20;;;;;;;1.82;80.39;100906.03;5031553;28;20107;-68
2020/12/04 01:49:37;;;;;;;103.60;41.50;;;;;;;1.67;80.53;100893.91;5034278;28;20112;-68
2020/12/04 01:52:03;;;;;;;107.23;42.27;;;;;;;1.32;82.08;100891.97;5035259;28;20033;-70
2020/12/04 01:54:31;;;;;;;105.27;39.20;;;;;;;1.35;82.28;100893.88;5035251;28;20029;-73
2020/12/04 01:56:57;;;;;;;109.00;43.43;;;;;;;1.30;82.94;100913.84;5035218;28;20396;-68
2020/12/04 01:59:22;;;;;;;107.17;42.63;;;;;;;1.43;82.93;100910.63;5035383;28;20100;-69
2020/12/04 02:01:49;;;;;;;118.77;43.33;;;;;;;1.44;82.71;100902.22;5035336;28;20485;-72
2020/12/04 02:04:15;;;;;;;119.33;45.70;;;;;;;1.31;83.70;100891.81;5035171;28;20040;-74
2020/12/04 02:06:57;;;;;;;124.50;43.80;;;;;;;1.29;83.82;100887.50;5066133;28;20409;-66
2020/12/04 02:09:47;;;;;;;124.00;43.63;;;;;;;1.21;84.20;100885.09;5034856;28;20469;-71
2020/12/04 02:12:16;;;;;;;132.53;46.10;;;;;;;1.41;84.02;100884.19;5035045;28;20108;-67
2020/12/04 02:14:43;;;;;;;119.90;46.37;;;;;;;1.53;83.29;100884.25;5035208;28;20072;-68
2020/12/04 02:17:08;;;;;;;123.43;42.80;;;;;;;1.54;83.46;100881.81;5034811;28;20355;-71
2020/12/04 02:19:36;;;;;;;121.23;43.33;;;;;;;1.40;83.24;100845.13;5034781;28;20528;-71
2020/12/04 02:22:03;;;;;;;131.87;47.77;;;;;;;1.71;83.12;100874.66;5034933;28;20060;-71
2020/12/04 02:24:29;;;;;;;123.17;46.37;;;;;;;1.69;83.01;100873.66;5034841;28;20026;-72
2020/12/04 02:26:56;;;;;;;129.13;46.23;;;;;;;1.82;82.51;100867.84;5034807;28;20036;-68
2020/12/04 02:29:21;;;;;;;132.17;45.40;;;;;;;1.93;82.49;100867.03;5034701;28;20025;-72
2020/12/04 02:31:47;;;;;;;136.00;47.93;;;;;;;2.07;81.75;100863.91;5034811;28;20022;-69
2020/12/04 02:34:12;;;;;;;122.33;44.80;;;;;;;2.06;81.02;100859.56;5034480;28;20039;-69
2020/12/04 02:36:37;;;;;;;130.27;47.67;;;;;;;2.17;80.82;100868.06;5034757;28;20108;-72
2020/12/04 02:39:03;;;;;;;136.73;48.90;;;;;;;2.20;80.48;100860.63;5034377;28;20389;-69
2020/12/04 02:41:29;;;;;;;136.40;46.70;;;;;;;2.24;80.93;100860.13;5034416;28;20079;-68
2020/12/04 02:43:54;;;;;;;132.07;45.50;;;;;;;2.26;80.52;100860.22;5034500;28;20053;-67
2020/12/04 02:46:19;;;;;;;132.23;45.67;;;;;;;2.10;80.27;100820.81;5034370;28;20428;-68
2020/12/04 02:48:45;;;;;;;126.70;44.40;;;;;;;2.31;80.14;100856.38;5034178;28;20045;-67
2020/12/04 02:51:10;;;;;;;134.13;45.97;;;;;;;2.38;80.47;100853.53;5034462;28;20473;-69
2020/12/04 02:53:36;;;;;;;132.10;44.67;;;;;;;2.43;80.27;100851.34;5034471;28;20033;-70
2020/12/04 02:56:01;;;;;;;131.20;44.77;;;;;;;2.19;80.05;100802.81;5034463;28;20026;-71
2020/12/04 02:58:27;;;;;;;126.17;43.13;;;;;;;2.23;79.62;100786.09;5034150;28;20037;-71
2020/12/04 03:00:53;;;;;;;146.00;46.73;;;;;;;2.18;80.02;100783.22;5034082;28;20025;-68
2020/12/04 03:03:18;;;;;;;137.60;45.00;;;;;;;2.46;79.80;100823.53;5034019;28;20025;-67
2020/12/04 03:05:44;;;;;;;129.93;43.47;;;;;;;2.43;80.29;100825.84;5034275;28;20037;-68
2020/12/04 03:08:09;;;;;;;140.60;45.80;;;;;;;2.40;80.05;100830.69;5034045;28;20061;-68
2020/12/04 03:10:34;;;;;;;140.83;43.77;;;;;;;2.37;80.32;100835.59;5034130;28;20026;-71
2020/12/04 03:13:00;;;;;;;156.27;49.20;;;;;;;2.32;80.50;100827.56;5033895;28;20034;-70
2020/12/04 03:15:25;;;;;;;157.73;46.80;;;;;;;2.34;80.53;100838.75;5034075;28;20033;-68
2020/12/04 03:17:51;;;;;;;147.63;49.27;;;;;;;2.23;80.63;100796.28;5034038;28;20034;-69
2020/12/04 03:20:16;;;;;;;147.23;45.90;;;;;;;2.48;80.85;100833.81;5033540;28;20033;-69
2020/12/04 03:22:42;;;;;;;152.53;49.10;;;;;;;2.56;80.35;100825.97;5033735;28;20033;-68
2020/12/04 03:25:07;;;;;;;136.83;45.27;;;;;;;2.40;79.89;100833.25;5033862;28;20036;-68
2020/12/04 03:27:33;;;;;;;134.03;43.57;;;;;;;1.75;82.02;100810.50;5033637;28;20037;-68
2020/12/04 03:29:58;;;;;;;149.60;48.93;;;;;;;1.82;82.15;100805.13;5033667;28;20473;-71
2020/12/04 03:32:23;;;;;;;128.53;45.10;;;;;;;1.99;82.04;100836.94;5033602;28;20471;-67
2020/12/04 03:34:49;;;;;;;130.37;44.07;;;;;;;1.90;82.73;100836.25;5033270;28;20040;-68
2020/12/04 03:37:14;;;;;;;139.43;44.93;;;;;;;1.55;83.81;100796.22;5031421;28;20072;-67
2020/12/04 03:39:40;;;;;;;151.67;46.43;;;;;;;1.76;83.96;100838.59;5033306;28;20527;-67
2020/12/04 03:42:05;;;;;;;151.77;45.27;;;;;;;1.71;83.93;100834.81;5070809;28;20047;-66
2020/12/04 03:44:31;;;;;;;149.17;46.23;;;;;;;1.68;83.85;100829.47;5070916;28;20040;-66
2020/12/04 03:46:57;;;;;;;155.57;46.83;;;;;;;1.23;85.11;100805.59;5070871;28;20043;-70
2020/12/04 03:49:22;;;;;;;152.43;47.27;;;;;;;1.55;85.31;100845.44;5070655;28;20036;-66
2020/12/04 03:51:48;;;;;;;173.40;49.67;;;;;;;1.42;85.84;100835.97;5070729;28;20040;-70
2020/12/04 03:54:13;;;;;;;150.57;51.63;;;;;;;1.56;84.95;100843.81;5070812;28;20155;-72
2020/12/04 03:56:40;;;;;;;149.13;48.73;;;;;;;1.63;85.04;100837.53;5070632;28;20079;-71
2020/12/04 03:59:05;;;;;;;160.83;49.17;;;;;;;1.66;84.87;100836.13;5070691;28;20120;-70
2020/12/04 04:01:31;;;;;;;143.60;40.97;;;;;;;1.71;84.20;100829.72;5059435;28;20135;-70
2020/12/04 04:03:57;;;;;;;182.40;65.03;;;;;;;1.73;84.25;100832.38;5050326;28;20033;-71
2020/12/04 04:06:23;;;;;;;150.50;47.90;;;;;;;1.77;83.77;100826.78;5050308;28;20056;-68
2020/12/04 04:08:49;;;;;;;133.70;45.00;;;;;;;1.71;84.27;100831.41;5050558;28;20048;-67
2020/12/04 04:11:14;;;;;;;138.00;44.60;;;;;;;1.72;84.12;100836.59;5049877;28;20028;-67
2020/12/04 04:13:40;;;;;;;131.93;41.07;;;;;;;1.82;83.97;100839.84;5022519;28;20124;-72
2020/12/04 04:16:05;;;;;;;148.50;43.73;;;;;;;1.73;83.62;100835.84;5012808;28;20429;-67
2020/12/04 04:18:32;;;;;;;138.50;44.70;;;;;;;1.96;83.34;100856.19;5012720;28;20034;-71
2020/12/04 04:20:58;;;;;;;139.27;46.40;;;;;;;1.92;83.71;100858.50;5012921;28;20160;-67
2020/12/04 04:23:23;;;;;;;137.27;45.50;;;;;;;1.92;84.12;100850.00;5012997;28;20474;-70
2020/12/04 04:25:48;;;;;;;139.53;45.57;;;;;;;2.02;83.89;100847.38;5012667;28;20026;-68
2020/12/04 04:28:14;;;;;;;147.10;47.27;;;;;;;2.06;83.70;100844.28;5012676;28;20087;-70
2020/12/04 04:30:39;;;;;;;142.67;45.87;;;;;;;2.07;83.03;100835.91;5012480;28;20079;-66
2020/12/04 04:33:05;;;;;;;132.10;43.80;;;;;;;1.76;83.26;100797.00;5012473;28;20057;-71
2020/12/04 04:35:31;;;;;;;138.20;43.73;;;;;;;1.74;83.22;100804.50;5013092;28;20128;-68
2020/12/04 04:37:59;;;;;;;134.70;42.43;;;;;;;1.80;83.78;100834.66;5012416;28;20037;-69
2020/12/04 04:40:24;;;;;;;133.80;43.27;;;;;;;1.71;84.64;100834.81;5012464;28;20029;-66
2020/12/04 04:43:25;;;;;;;149.17;46.37;;;;;;;1.64;84.99;100837.66;5012372;28;20091;-68
2020/12/04 04:45:53;;;;;;;143.67;43.93;;;;;;;1.60;85.54;100846.69;5010066;28;20057;-67
2020/12/04 04:48:27;;;;;;;130.33;43.17;;;;;;;1.36;86.27;100835.47;5010157;28;20053;-68
2020/12/04 04:51:01;;;;;;;134.43;43.93;;;;;;;1.18;86.67;100826.38;5010103;28;20046;-71
2020/12/04 04:53:27;;;;;;;147.47;45.17;;;;;;;1.37;86.65;100852.53;5009973;28;20441;-72
2020/12/04 04:55:55;;;;;;;152.87;46.90;;;;;;;1.25;86.98;100849.00;5009972;28;20033;-71
2020/12/04 04:58:20;;;;;;;137.63;46.13;;;;;;;1.30;86.87;100857.88;5009875;28;20142;-66
2020/12/04 05:00:46;;;;;;;140.47;44.00;;;;;;;1.15;87.04;100828.66;5012168;28;20476;-73
2020/12/04 05:03:11;;;;;;;145.43;44.70;;;;;;;1.50;86.69;100869.63;5025779;28;20029;-70
2020/12/04 05:05:52;;;;;;;139.47;47.33;;;;;;;1.56;86.23;100854.84;5029555;28;20038;-68
2020/12/04 05:08:22;;;;;;;144.70;46.40;;;;;;;1.72;85.50;100866.22;5027440;28;20089;-69
2020/12/04 05:10:49;;;;;;;139.60;46.10;;;;;;;1.68;85.54;100857.47;5029409;28;20036;-71
2020/12/04 05:13:19;;;;;;;140.80;46.83;;;;;;;1.67;85.86;100862.44;5029433;28;20104;-68
2020/12/04 05:15:44;;;;;;;144.57;45.28;;;;;;;1.72;85.27;100851.88;5029276;28;20120;-70
2020/12/04 05:18:12;;;;;;;124.87;44.90;;;;;;;1.90;84.91;100859.16;5029459;28;20168;-67
2020/12/04 05:20:42;;;;;;;128.67;43.43;;;;;;;1.92;84.06;100866.16;5031108;28;20038;-73
2020/12/04 05:23:08;;;;;;;120.30;42.70;;;;;;;1.69;84.79;100858.38;5031047;28;20026;-68
2020/12/04 05:25:36;;;;;;;120.00;40.47;;;;;;;1.32;85.38;100823.28;5031460;28;20041;-66
2020/12/04 05:28:14;;;;;;;121.87;40.80;;;;;;;1.31;85.89;100825.69;5030495;28;20179;-67
2020/12/04 05:30:42;;;;;;;128.13;42.90;;;;;;;1.52;85.69;100867.22;5031712;28;20025;-69
2020/12/04 05:33:08;;;;;;;115.37;39.47;;;;;;;1.45;85.81;100871.81;5031649;28;20041;-66
2020/12/04 05:35:35;;;;;;;121.00;40.73;;;;;;;1.33;86.31;100859.78;5031795;28;20033;-69
2020/12/04 05:38:08;;;;;;;117.10;42.33;;;;;;;1.29;86.61;100864.59;5029332;28;20037;-70
2020/12/04 05:40:35;;;;;;;113.43;42.90;;;;;;;1.29;86.50;100854.41;5031436;28;20113;-70
2020/12/04 05:43:01;;;;;;;115.87;42.67;;;;;;;1.43;86.43;100863.19;5046882;28;20378;-67
2020/12/04 05:45:26;;;;;;;127.67;41.30;;;;;;;1.52;85.94;100857.94;5031098;28;20087;-67
2020/12/04 05:47:52;;;;;;;106.70;42.47;;;;;;;1.65;85.65;100856.38;5031158;28;20029;-67
2020/12/04 05:50:17;;;;;;;103.73;40.83;;;;;;;1.72;85.10;100849.31;5031023;28;20037;-67
2020/12/04 05:52:43;;;;;;;103.40;39.37;;;;;;;1.75;84.51;100857.19;5031416;28;20025;-71
2020/12/04 05:55:10;;;;;;;115.60;41.47;;;;;;;1.85;84.35;100861.34;5031086;28;20481;-68
2020/12/04 05:57:54;;;;;;;107.23;40.23;;;;;;;1.96;84.13;100866.38;5031315;28;20063;-71
2020/12/04 06:00:21;;;;;;;104.37;42.40;;;;;;;1.82;83.88;100871.31;5031367;28;20057;-72
2020/12/04 06:03:04;;;;;;;101.03;38.57;;;;;;;1.68;84.21;100870.19;5031252;28;20456;-66
2020/12/04 06:05:30;;;;;;;107.73;40.67;;;;;;;1.63;84.90;100868.94;5030069;28;20068;-70
2020/12/04 06:08:06;;;;;;;119.47;41.67;;;;;;;1.69;84.82;100869.44;5030968;28;20045;-66
2020/12/04 06:10:33;;;;;;;107.93;41.00;;;;;;;1.54;85.17;100871.66;5030970;28;20037;-71
2020/12/04 06:13:00;;;;;;;112.40;42.80;;;;;;;1.42;85.91;100835.06;5062120;28;20497;-68
2020/12/04 06:15:27;;;;;;;116.20;44.17;;;;;;;1.52;85.47;100875.75;5031240;28;20017;-73
2020/12/04 06:18:11;;;;;;;117.73;40.60;;;;;;;1.65;85.39;100871.63;5031309;28;20057;-68
2020/12/04 06:20:49;;;;;;;124.40;47.80;;;;;;;1.62;85.51;100879.91;5062244;28;20038;-70
2020/12/04 06:23:17;;;;;;;113.70;42.03;;;;;;;1.54;85.69;100873.31;5030947;28;20026;-70
2020/12/04 06:25:52;;;;;;;123.57;44.27;;;;;;;1.59;85.91;100888.16;5030882;28;20492;-70
2020/12/04 06:28:18;;;;;;;129.17;44.10;;;;;;;1.66;85.65;100889.56;5031120;28;20394;-68
2020/12/04 06:31:05;;;;;;;137.93;52.63;;;;;;;1.68;85.69;100865.09;5031028;28;20036;-68
2020/12/04 06:33:36;;;;;;;201.00;132.27;;;;;;;1.89;84.87;100877.75;5030549;28;20161;-68
2020/12/04 06:36:04;;;;;;;116.60;46.47;;;;;;;2.03;84.83;100889.91;5033605;28;20503;-70
2020/12/04 06:38:35;;;;;;;121.73;45.07;;;;;;;2.16;83.67;100901.06;5034735;28;20026;-67
2020/12/04 06:41:20;;;;;;;102.33;42.13;;;;;;;2.11;83.08;100898.16;5034503;28;20030;-71
2020/12/04 06:43:46;;;;;;;123.87;46.87;;;;;;;2.00;83.80;100898.97;5034744;28;20022;-69
2020/12/04 06:46:32;;;;;;;111.97;41.93;;;;;;;1.92;84.35;100906.03;5034329;28;20569;-67
2020/12/04 06:49:12;;;;;;;107.83;43.80;;;;;;;1.86;84.41;100901.31;5034249;28;20087;-67
2020/12/04 06:51:41;;;;;;;113.00;43.73;;;;;;;1.80;84.99;100898.28;5034404;28;20033;-67
2020/12/04 06:54:07;;;;;;;117.93;45.10;;;;;;;1.81;85.04;100897.53;5034447;28;20509;-66
2020/12/04 06:56:33;;;;;;;112.00;42.40;;;;;;;1.82;84.78;100896.75;5034648;28;20473;-72
2020/12/04 06:59:00;;;;;;;120.77;45.50;;;;;;;1.82;85.05;100894.22;5033986;28;20037;-68
2020/12/04 07:01:25;;;;;;;118.37;44.00;;;;;;;1.75;85.50;100885.19;5034323;28;20518;-71
2020/12/04 07:03:55;;;;;;;111.00;42.87;;;;;;;1.80;84.99;100895.75;5034240;28;20112;-70
2020/12/04 07:06:24;;;;;;;122.05;42.70;;;;;;;1.80;85.06;100895.75;5034061;28;20378;-69
2020/12/04 07:08:58;;;;;;;118.32;45.45;;;;;;;1.64;84.96;100846.94;5034007;28;20029;-70
2020/12/04 07:11:24;;;;;;;149.67;58.63;;;;;;;2.02;84.87;100898.31;5038433;28;20034;-70
2020/12/04 07:13:51;;;;;;;112.23;44.43;;;;;;;1.93;85.10;100910.31;5034113;28;20374;-70
2020/12/04 07:16:17;;;;;;;111.80;43.77;;;;;;;1.83;85.24;100913.78;5049294;28;20477;-68
2020/12/04 07:18:44;;;;;;;107.83;41.27;;;;;;;1.71;85.87;100900.13;5033770;28;20030;-70
2020/12/04 07:21:09;;;;;;;104.03;39.93;;;;;;;1.55;86.35;100896.34;5033718;28;20124;-68
2020/12/04 07:23:36;;;;;;;95.70;36.33;;;;;;;1.41;86.75;100862.16;5034313;28;20668;-68
2020/12/04 07:26:04;;;;;;;93.50;37.13;;;;;;;1.50;86.70;100892.53;5033662;28;20034;-71
2020/12/04 07:28:31;;;;;;;94.80;37.90;;;;;;;1.64;86.40;100897.84;5033697;28;20033;-69
2020/12/04 07:30:57;;;;;;;104.83;44.03;;;;;;;1.66;86.63;100897.19;5049106;28;20033;-67
2020/12/04 07:33:22;;;;;;;140.40;60.60;;;;;;;1.67;86.59;100911.72;5033526;28;20579;-68
2020/12/04 07:35:48;;;;;;;284.10;135.07;;;;;;;1.68;86.48;100900.72;5034040;28;20204;-72
2020/12/04 07:38:13;;;;;;;107.70;43.27;;;;;;;1.57;86.99;100902.44;5033341;28;20032;-67
2020/12/04 07:40:40;;;;;;;85.67;34.93;;;;;;;1.64;86.31;100898.72;5033095;28;20029;-68
2020/12/04 07:43:10;;;;;;;96.40;37.87;;;;;;;1.71;86.96;100895.03;5033546;28;20079;-73
2020/12/04 07:45:36;;;;;;;93.27;38.67;;;;;;;1.81;86.37;100905.16;5032900;28;20040;-71
2020/12/04 07:48:07;;;;;;;106.93;47.13;;;;;;;1.89;86.37;100891.34;5033062;28;20029;-67
2020/12/04 07:50:33;;;;;;;99.00;40.47;;;;;;;2.02;86.11;100892.31;5033087;28;20038;-68
2020/12/04 07:52:58;;;;;;;92.13;37.63;;;;;;;1.97;85.88;100884.34;5032955;28;20091;-70
2020/12/04 07:55:26;;;;;;;204.17;90.73;;;;;;;2.13;85.47;100896.63;5033380;28;20044;-67
2020/12/04 07:58:01;;;;;;;99.77;39.80;;;;;;;2.22;84.73;100886.25;5033083;28;20025;-70
2020/12/04 08:00:33;;;;;;;95.90;39.23;;;;;;;2.14;84.25;100851.66;5032976;28;20099;-69
2020/12/04 08:03:14;;;;;;;99.07;42.77;;;;;;;2.35;83.99;100900.81;5032945;28;20422;-67
2020/12/04 08:05:41;;;;;;;202.77;96.20;;;;;;;2.43;83.93;100905.72;5033233;28;20041;-67
2020/12/04 08:08:07;;;;;;;96.60;37.30;;;;;;;2.37;84.38;100901.81;5033204;28;20045;-67
2020/12/04 08:10:33;;;;;;;93.53;37.47;;;;;;;2.32;84.24;100909.09;5032767;28;20116;-70
2020/12/04 08:12:59;;;;;;;87.70;34.27;;;;;;;2.24;84.97;100912.72;5032976;28;20113;-71
2020/12/04 08:15:25;;;;;;;88.17;37.10;;;;;;;2.25;84.73;100897.53;5032825;28;20489;-70
2020/12/04 08:18:04;;;;;;;95.37;37.10;;;;;;;2.22;85.39;100902.41;5032635;28;20060;-71
2020/12/04 08:20:31;;;;;;;98.10;35.95;;;;;;;2.28;85.94;100896.91;5033069;28;20036;-67
2020/12/04 08:22:57;;;;;;;90.77;36.13;;;;;;;2.35;84.74;100888.94;5032420;28;20029;-67
2020/12/04 08:25:29;;;;;;;92.50;37.00;;;;;;;2.18;85.14;100861.28;5030099;28;20516;-70
2020/12/04 08:27:55;;;;;;;108.70;45.57;;;;;;;2.49;84.61;100902.72;5061510;28;20124;-70
2020/12/04 08:30:25;;;;;;;84.53;36.37;;;;;;;2.48;84.11;100875.50;5031891;28;20030;-71
2020/12/04 08:32:54;;;;;;;88.57;38.00;;;;;;;2.64;84.65;100897.94;5029565;28;20029;-71
2020/12/04 08:35:22;;;;;;;87.60;36.70;;;;;;;2.68;84.10;100909.22;5031892;28;20049;-68
2020/12/04 08:37:50;;;;;;;103.60;44.47;;;;;;;2.87;83.82;100897.09;5047361;28;20100;-70
2020/12/04 08:40:31;;;;;;;96.37;39.57;;;;;;;2.61;82.95;100845.84;5031850;28;20036;-67
2020/12/04 08:43:17;;;;;;;86.80;34.57;;;;;;;2.77;83.78;100888.63;5029957;28;20025;-67
2020/12/04 08:45:44;;;;;;;84.77;36.07;;;;;;;2.82;83.53;100895.00;5031892;28;20033;-67
2020/12/04 08:48:18;;;;;;;91.90;35.60;;;;;;;2.75;83.89;100881.78;5031888;28;20021;-74
2020/12/04 08:50:52;;;;;;;90.10;35.90;;;;;;;2.75;84.03;100899.63;5029482;28;20025;-70
2020/12/04 08:53:21;;;;;;;82.93;31.63;;;;;;;2.66;84.41;100888.72;5031235;28;20072;-69
2020/12/04 08:55:49;;;;;;;84.07;35.73;;;;;;;2.82;83.95;100895.88;5031048;28;20018;-67
2020/12/04 08:58:16;;;;;;;89.13;36.27;;;;;;;2.97;83.54;100893.56;5031299;28;20465;-69
2020/12/04 09:00:45;;;;;;;84.80;35.27;;;;;;;2.85;83.56;100885.88;5031679;28;20022;-68
2020/12/04 09:03:11;;;;;;;79.18;31.77;;;;;;;2.65;84.41;100879.31;5031468;28;20025;-70
2020/12/04 09:05:37;;;;;;;85.23;34.13;;;;;;;2.68;85.58;100892.28;5031484;28;20378;-70
2020/12/04 09:08:03;;;;;;;88.73;35.57;;;;;;;2.62;84.88;100880.72;5031541;28;20042;-69
2020/12/04 09:10:32;;;;;;;92.37;37.30;;;;;;;2.59;84.99;100884.84;5031389;28;20521;-70
2020/12/04 09:12:58;;;;;;;93.07;37.92;;;;;;;2.79;84.89;100885.47;5031449;28;20021;-70
2020/12/04 09:15:26;;;;;;;95.40;36.17;;;;;;;2.65;85.64;100891.16;5031147;28;20048;-71
2020/12/04 09:17:52;;;;;;;96.93;38.50;;;;;;;2.79;85.87;100882.00;5031148;28;20485;-69
2020/12/04 09:20:17;;;;;;;102.83;41.77;;;;;;;2.81;85.39;100866.03;5031147;28;20057;-69
2020/12/04 09:22:43;;;;;;;91.20;34.87;;;;;;;2.98;84.72;100871.50;5029677;28;20091;-71
2020/12/04 09:25:12;;;;;;;87.57;34.77;;;;;;;2.90;84.47;100870.94;5031447;28;20041;-68
2020/12/04 09:27:38;;;;;;;91.40;35.77;;;;;;;3.00;84.95;100858.09;5031165;28;20018;-68
2020/12/04 09:30:12;;;;;;;87.97;36.03;;;;;;;3.05;84.63;100848.22;5031188;28;20469;-73
2020/12/04 09:32:38;;;;;;;85.07;34.90;;;;;;;3.06;83.99;100844.91;5030912;28;20080;-70
2020/12/04 09:35:05;;;;;;;82.90;33.60;;;;;;;3.05;84.58;100853.31;5030772;28;20064;-67
2020/12/04 09:37:32;;;;;;;87.73;34.90;;;;;;;2.99;85.13;100846.13;5029062;28;20030;-70
2020/12/04 09:40:01;;;;;;;102.50;40.33;;;;;;;2.98;85.12;100841.81;5030792;28;20034;-69
2020/12/04 09:42:27;;;;;;;111.10;43.90;;;;;;;2.89;85.54;100838.56;5030883;28;20511;-70
2020/12/04 09:44:55;;;;;;;114.10;44.70;;;;;;;2.95;85.75;100833.03;5030833;28;20493;-70
2020/12/04 09:47:23;;;;;;;107.90;40.17;;;;;;;2.82;85.94;100844.88;5030806;28;20061;-69
2020/12/04 09:49:49;;;;;;;109.33;47.97;;;;;;;2.66;86.33;100802.06;5030523;28;20032;-67
2020/12/04 09:52:16;;;;;;;110.83;43.97;;;;;;;2.98;85.98;100831.59;5030800;28;20033;-69
2020/12/04 09:54:44;;;;;;;103.73;42.67;;;;;;;3.04;85.65;100811.63;5028339;28;20481;-69
2020/12/04 09:57:12;;;;;;;103.70;40.13;;;;;;;3.11;85.77;100822.28;5031094;28;20029;-68
2020/12/04 09:59:38;;;;;;;96.57;36.43;;;;;;;3.13;85.14;100819.06;5030579;28;20065;-71
2020/12/04 10:02:04;;;;;;;106.20;40.10;;;;;;;2.92;85.00;100780.16;5031167;28;20084;-71
2020/12/04 10:04:30;;;;;;;229.07;113.00;;;;;;;3.08;85.03;100820.41;5030775;28;20026;-68
2020/12/04 10:06:56;;;;;;;156.33;71.03;;;;;;;2.94;85.30;100790.44;5030682;28;20049;-70
2020/12/04 10:09:22;;;;;;;111.57;44.20;;;;;;;2.95;85.82;100810.94;5031615;28;20379;-66
2020/12/04 10:11:49;;;;;;;97.40;36.27;;;;;;;2.87;86.36;100807.84;5040038;28;20469;-69
2020/12/04 10:14:15;;;;;;;111.57;43.43;;;;;;;2.94;86.54;100809.22;5034531;28;20036;-71
2020/12/04 10:16:42;;;;;;;108.90;38.77;;;;;;;3.06;86.19;100792.22;5032122;28;20029;-68
2020/12/04 10:19:09;;;;;;;107.53;39.17;;;;;;;3.16;85.88;100803.97;5034474;28;20029;-67
2020/12/04 10:21:36;;;;;;;108.90;37.77;;;;;;;3.09;85.97;100794.13;5034711;28;20037;-71
2020/12/04 10:24:03;;;;;;;105.50;39.07;;;;;;;3.20;85.63;100792.31;5031826;28;20037;-66
2020/12/04 10:26:29;;;;;;;112.50;41.17;;;;;;;3.06;85.52;100760.72;5032496;28;20079;-70
2020/12/04 10:28:54;;;;;;;112.07;37.67;;;;;;;3.31;84.76;100786.31;5034575;28;20124;-68
2020/12/04 10:31:20;;;;;;;106.20;39.27;;;;;;;3.17;85.27;100784.47;5034430;28;20021;-69
2020/12/04 10:33:45;;;;;;;119.10;44.60;;;;;;;3.30;85.31;100787.13;5034465;28;20082;-68
2020/12/04 10:36:13;;;;;;;118.70;46.27;;;;;;;3.40;85.33;100791.19;5034304;28;20079;-68
2020/12/04 10:38:39;;;;;;;122.80;48.37;;;;;;;3.28;85.64;100783.56;5034045;28;20507;-67
2020/12/04 10:41:04;;;;;;;119.23;42.80;;;;;;;3.11;86.09;100784.91;5034077;28;20017;-70
2020/12/04 10:43:30;;;;;;;117.77;46.13;;;;;;;3.13;86.17;100783.34;5061258;28;20064;-68
2020/12/04 10:45:55;;;;;;;121.00;45.37;;;;;;;3.24;86.39;100794.34;5033689;28;20057;-67
2020/12/04 10:48:21;;;;;;;121.93;40.70;;;;;;;3.22;86.10;100788.22;5034220;28;20401;-67
2020/12/04 10:50:46;;;;;;;112.00;41.40;;;;;;;3.21;86.09;100789.00;5034627;28;20083;-68
2020/12/04 10:53:13;;;;;;;116.53;39.73;;;;;;;3.26;86.00;100790.22;5033755;28;20491;-70
2020/12/04 10:55:43;;;;;;;116.67;37.93;;;;;;;3.13;86.39;100772.25;5034087;28;20029;-67
2020/12/04 10:58:08;;;;;;;113.97;39.80;;;;;;;2.95;86.80;100729.34;5033880;28;20034;-71
2020/12/04 11:00:34;;;;;;;108.63;39.20;;;;;;;3.17;86.85;100767.47;5033339;28;20407;-68
2020/12/04 11:03:16;;;;;;;123.93;42.33;;;;;;;3.22;86.97;100760.16;5033824;28;20029;-70
2020/12/04 11:05:43;;;;;;;133.30;41.63;;;;;;;3.25;87.20;100760.38;5032197;28;20396;-67
2020/12/04 11:08:08;;;;;;;119.97;42.07;;;;;;;3.24;87.11;100756.94;5033377;28;20472;-69
2020/12/04 11:10:34;;;;;;;121.63;41.73;;;;;;;3.24;87.21;100761.16;5033488;28;20021;-70
2020/12/04 11:13:00;;;;;;;116.03;41.23;;;;;;;3.28;87.14;100760.59;5033878;28;20029;-67